Aérodrome :
LOGIN :

S'inscrire | Disclaimer

   EN    FR    IT 

 










Légende :    VFR   VFR Marginal   IFR   IFR Intensif   IFR Très Intensif
Visi : 
Plafond : 
>= 8 km
>= 3000ft
5 à 8 km
1000 à 3000 ft
1500m à 5 km
500 à 1000 ft
800 à 1500m
200 à 500 ft
< 800m
< 200 ft
Symboles :   Orages  Brouillard  Fortes neiges  Fortes précipitations  Vent > 20 kt
SIGMETs :   Divers  Orages  Givrage  Turbulence  Onde Orograph.  Cendres Volcan.






- Altitude de l'aérodrome : 56 ft
- Code IATA : TRD


ENVA - Trondheim , Værnes

DERNIER METAR :
  • 200050Z 33018G31KT 290V350 1200 -SHSN FEW003 SCT012 BKN031 M02/M03 Q1002 RMK WIND 670FT 33033G46KT

METARs EXPIRÉS :
  • 200020Z 36006KT 290V070 9000 -SHSN BKN016 M02/M03 Q1002 RESHSN RMK WIND 670FT 35018KT
  • 192350Z 33011KT 310V360 7000 VCSH SCT017 BKN031 M02/M03 Q1001 RMK WIND 670FT 34020KT
  • 192320Z 30016KT 3000 -SHSN VV010 M02/M03 Q1000 RMK WIND 670FT 31032KT
  • 192250Z 28017G29KT 270V330 1500 SHSN FEW014 SCT022 BKN029 M02/M04 Q1000 RMK WIND 670FT 29019KT
  • 192220Z 26010KT 9999 VCSH SCT012 BKN019 M03/M04 Q0999 RMK WIND 670FT 28012KT

TAF TAF ENVA
Valide du 20 à 00h jusqu'au 21 à 00h UTC


2000/2024 26015KT 9999 -SHSN FEW015CB BKN030
TEMPO 2000/2021 34020G32KT
TEMPO 2000/2024 0500 SHSN VV006



MET'MAP, la Météo Aéronautique d'un coup d'oeil ! - Copyright ORBIFLY Décembre 2007 - Disclaimer

ORBIFLY MET'MAP TEAM :

Programmation & Développement : Alexandra Zaïnal
Sur une idée originale de : Baudouin d'Aumeries
Assistance à la programmation : Marc-Olivier Méhu
Soutien technique & logistique : Manuel Goepfert

Contact : metmap@orbifly.com




SOURCES & CREDITS :

   NOAA